Main page
METAR-TAF:

METAR-TAF

Airports :

Samos International Airport

Samos, Greece

latitude: 37-42N, longitude: 026-55E, elevation: 2 m

Current weather observation

The report was made 29 minutes ago, at 01:50 UTC
Wind 10 kt from the North
Temperature 12°C
Humidity 76%
Pressure 1016 hPa
Visibility 10 km or more
Scattered clouds at a height of 2000 ft

METAR: LGSM 070150Z 01010KT 9999 SCT020 12/08 Q1016

Time: 05:19 (02:19 UTC)

Forecast

The report was made 3 hours and 19 minutes ago, at 23:00 UTC
Forecast valid from 07 at 00 UTC to 07 at 09 UTC
Wind 10 kt from the North/Northeast
Visibility 10 km or more
Few clouds at a height of 1800 ft
Scattered clouds at a height of 2500 ft

TAF: LGSM 062300Z 0700/0709 02010KT 9999 FEW018 SCT025

Weather observations and forecasts of more than 4000 airports (METAR and TAF reports).

The available stations are represented by yellow and red dots on the map.

Hover mouse over dot to see the name of the station.

Then click to see weather observations and forecasts.

To change the map : click on the green buttons with a black cross to zoom in, on the green button with a dash to zoom out, or on the green arrows for adjacent maps.


METAR-TAF: